Time;durP1;ratioP1;P1;durP2;ratioP2;P2;SDS_P1;SDS_P2;PMS_P1;PMS_P2;Temp;Humidity;BMP_temperature;BMP_pressure;BME280_temperature;BME280_humidity;BME280_pressure;Samples;Min_cycle;Max_cycle;Signal;HPM_P1;HPM_P2
2023/01/11 00:01:19;;;;;;;2.92;2.30;;;;;;;4.43;89.15;98905.81;5109382;28;20379;-71
2023/01/11 00:03:45;;;;;;;2.70;1.92;;;;;;;4.38;88.07;98922.53;5112572;28;20372;-71
2023/01/11 00:06:11;;;;;;;3.17;2.17;;;;;;;4.19;86.52;98912.38;5111144;28;20027;-71
2023/01/11 00:08:37;;;;;;;3.78;2.20;;;;;;;4.28;87.89;98929.91;5112531;28;20035;-71
2023/01/11 00:11:04;;;;;;;2.45;1.60;;;;;;;4.29;87.71;98926.00;5111620;28;20053;-71
2023/01/11 00:13:30;;;;;;;4.30;1.70;;;;;;;4.28;87.22;98938.22;5110782;28;20023;-71
2023/01/11 00:15:56;;;;;;;1.95;1.75;;;;;;;4.27;86.85;98939.34;5112509;28;20034;-71
2023/01/11 00:18:21;;;;;;;3.67;1.98;;;;;;;4.21;88.25;98935.84;5110843;28;20015;-71
2023/01/11 00:20:47;;;;;;;2.95;2.13;;;;;;;4.21;87.98;98926.72;5111488;28;20035;-71
2023/01/11 00:23:12;;;;;;;2.47;2.00;;;;;;;4.25;88.33;98926.94;5111803;28;20106;-71
2023/01/11 00:25:38;;;;;;;3.05;2.25;;;;;;;4.24;88.38;98930.84;5110848;28;20110;-71
2023/01/11 00:28:04;;;;;;;3.95;2.38;;;;;;;4.24;89.04;98926.13;5112158;28;20026;-71
2023/01/11 00:30:31;;;;;;;2.65;2.33;;;;;;;4.19;88.39;98931.75;5111083;28;20368;-71
2023/01/11 00:32:59;;;;;;;3.63;3.17;;;;;;;4.31;88.43;98932.06;5112017;28;20513;-71
2023/01/11 00:35:25;;;;;;;4.20;2.80;;;;;;;4.30;87.36;98932.38;5111779;28;20024;-71
2023/01/11 00:37:54;;;;;;;5.13;2.95;;;;;;;4.25;87.23;98921.41;5111924;28;20324;-71
2023/01/11 00:40:20;;;;;;;3.25;2.75;;;;;;;4.34;88.09;98942.56;5109990;28;20087;-71
2023/01/11 00:48:28;;;;;;;2.40;2.20;;;;;;;4.40;85.95;98947.97;5111718;28;20468;-71
2023/01/11 00:50:56;;;;;;;3.45;2.53;;;;;;;4.40;85.73;98959.06;5110878;28;20031;-71
2023/01/11 00:53:21;;;;;;;3.58;1.77;;;;;;;4.34;85.71;98961.94;5110386;28;20020;-71
2023/01/11 00:55:47;;;;;;;1.50;1.40;;;;;;;4.59;86.41;98962.56;5110539;28;20059;-71
2023/01/11 00:58:12;;;;;;;2.65;1.75;;;;;;;4.51;85.75;98957.72;5110251;28;20043;-71
2023/01/11 01:00:38;;;;;;;3.55;1.45;;;;;;;4.50;85.12;98958.88;5109269;28;20600;-71
2023/01/11 01:03:04;;;;;;;2.17;1.98;;;;;;;4.49;85.65;98954.44;5110649;28;20024;-70
2023/01/11 01:05:29;;;;;;;4.38;2.10;;;;;;;4.56;85.26;98948.50;5110390;28;20085;-71
2023/01/11 01:07:55;;;;;;;3.97;1.92;;;;;;;4.52;85.33;98955.75;5111611;28;20031;-71
2023/01/11 01:10:20;;;;;;;2.13;1.80;;;;;;;4.53;85.27;98961.00;5110775;28;20031;-71
2023/01/11 01:15:30;;;;;;;1.95;1.85;;;;;;;4.46;85.17;98955.88;5116068;28;20072;-71
2023/01/11 01:17:56;;;;;;;4.40;2.33;;;;;;;4.53;85.43;98958.25;5115754;28;20024;-71
2023/01/11 01:20:23;;;;;;;3.42;2.15;;;;;;;4.46;84.28;98955.03;5114830;28;20012;-71
2023/01/11 01:22:48;;;;;;;2.35;2.15;;;;;;;4.45;83.08;98956.16;5114639;28;20460;-71
2023/01/11 01:25:15;;;;;;;3.83;2.50;;;;;;;4.51;84.60;98957.72;5115443;28;20030;-71
2023/01/11 01:27:40;;;;;;;2.67;1.90;;;;;;;4.44;83.83;98949.00;5115582;28;20422;-71
2023/01/11 01:30:07;;;;;;;2.85;1.92;;;;;;;4.46;83.65;98963.34;5114534;28;20028;-71
2023/01/11 01:32:32;;;;;;;2.33;2.05;;;;;;;4.45;82.29;98962.53;5115287;28;20035;-71
2023/01/11 01:34:58;;;;;;;3.65;2.30;;;;;;;4.40;84.30;98953.50;5115446;28;20016;-71
2023/01/11 01:37:23;;;;;;;2.10;1.83;;;;;;;4.40;83.10;98956.28;5115351;28;20509;-71
2023/01/11 01:39:49;;;;;;;2.30;1.98;;;;;;;4.42;83.93;98965.09;5115313;28;20023;-71
2023/01/11 01:42:19;;;;;;;1.73;1.60;;;;;;;4.44;82.79;98951.75;5113295;28;20034;-71
2023/01/11 01:45:01;;;;;;;2.65;1.90;;;;;;;4.44;83.47;98954.53;5113406;28;20084;-71
2023/01/11 01:47:41;;;;;;;2.20;1.67;;;;;;;4.45;82.06;98959.78;5115095;28;20500;-71
2023/01/11 01:50:34;;;;;;;3.53;2.00;;;;;;;4.44;83.16;98960.06;5114062;28;20492;-71
2023/01/11 01:53:17;;;;;;;3.20;2.35;;;;;;;4.40;82.69;98957.09;5106132;28;20039;-71
2023/01/11 01:55:47;;;;;;;2.95;2.17;;;;;;;4.29;83.63;98945.41;5115124;28;20494;-71
2023/01/11 01:58:17;;;;;;;2.88;2.33;;;;;;;4.22;84.00;98948.56;5114610;28;20047;-71
2023/01/11 02:00:44;;;;;;;2.57;2.23;;;;;;;4.25;83.95;98958.22;5112687;28;20031;-71
2023/01/11 02:03:15;;;;;;;6.88;3.28;;;;;;;4.31;84.27;98959.75;5113553;28;20536;-71
2023/01/11 02:05:40;;;;;;;2.38;1.90;;;;;;;4.24;84.15;98956.59;5113424;28;20108;-71
2023/01/11 02:08:16;;;;;;;1.80;1.70;;;;;;;4.22;84.83;98965.19;5114580;27;20027;-71
2023/01/11 02:10:42;;;;;;;2.83;2.15;;;;;;;4.16;84.05;98969.19;5112778;28;20103;-71
2023/01/11 02:13:11;;;;;;;2.00;1.80;;;;;;;4.19;84.57;98968.56;5114458;28;20489;-71
2023/01/11 02:15:36;;;;;;;2.33;1.50;;;;;;;4.30;84.01;98976.69;5114675;28;20019;-71
2023/01/11 02:18:02;;;;;;;2.83;1.75;;;;;;;4.26;83.38;98973.72;5114648;28;20015;-71
2023/01/11 02:20:59;;;;;;;2.97;1.88;;;;;;;4.27;84.13;98985.59;5113638;28;20486;-71
2023/01/11 02:23:39;;;;;;;1.70;1.40;;;;;;;4.24;83.33;98984.28;5112917;28;20038;-71
2023/01/11 02:26:22;;;;;;;;;;;;;;;4.34;82.64;98991.56;5113678;28;20111;-71
2023/01/11 02:28:55;;;;;;;1.45;1.20;;;;;;;4.35;83.46;98991.25;5113113;28;19908;-71
2023/01/11 02:31:33;;;;;;;2.03;1.40;;;;;;;4.26;83.02;98984.78;5113383;28;20019;-71
2023/01/11 02:34:07;;;;;;;3.63;1.83;;;;;;;4.33;83.50;98987.16;5114210;28;20047;-71
2023/01/11 02:37:01;;;;;;;1.45;1.30;;;;;;;4.31;83.14;98994.94;5114306;28;20433;-71
2023/01/11 02:39:30;;;;;;;1.52;1.40;;;;;;;4.34;82.20;98991.56;5112966;28;20572;-71
2023/01/11 02:45:30;;;;;;;1.65;1.55;;;;;;;4.37;82.97;98990.13;5093639;28;20085;-71
2023/01/11 02:48:20;;;;;;;1.85;1.60;;;;;;;4.24;83.78;98981.50;5129745;27;20030;-71
2023/01/11 02:51:00;;;;;;;2.10;1.90;;;;;;;4.17;84.88;98983.84;5113082;28;20024;-71
2023/01/11 02:53:35;;;;;;;;;;;;;;;4.19;85.49;98979.63;5112759;28;20455;-71
2023/01/11 02:56:09;;;;;;;1.88;1.67;;;;;;;4.14;85.37;98973.38;5113437;28;19915;-71
2023/01/11 02:58:39;;;;;;;1.83;1.38;;;;;;;4.22;85.29;98980.97;5113824;28;20024;-71
2023/01/11 03:01:05;;;;;;;1.90;1.67;;;;;;;4.11;84.72;98977.56;5112765;28;20020;-71
2023/01/11 03:03:32;;;;;;;2.10;1.83;;;;;;;4.12;84.30;98972.88;5112451;28;20027;-71
2023/01/11 03:06:12;;;;;;;2.72;2.03;;;;;;;4.26;83.32;98976.47;5112449;28;20418;-71
2023/01/11 03:08:43;;;;;;;;;;;;;;;4.26;83.65;98979.25;5114295;28;20490;-71
2023/01/11 03:14:26;;;;;;;1.52;1.42;;;;;;;4.18;83.62;98977.16;5113767;28;20035;-71
2023/01/11 03:17:09;;;;;;;1.50;1.40;;;;;;;4.27;83.49;98980.03;5113611;28;20145;-71
2023/01/11 03:20:04;;;;;;;1.50;1.40;;;;;;;4.29;83.72;98980.59;5113468;28;20085;-71
2023/01/11 03:22:54;;;;;;;2.53;1.33;;;;;;;4.35;83.65;98985.72;5112237;28;20098;-71
2023/01/11 03:25:23;;;;;;;;;;;;;;;4.22;83.69;98984.56;5113873;27;20161;-71
2023/01/11 03:27:59;;;;;;;2.05;1.80;;;;;;;4.27;84.15;98980.03;5113366;28;19950;-71
2023/01/11 03:30:34;;;;;;;1.88;1.38;;;;;;;4.20;83.91;98974.91;5112195;28;20024;-71
2023/01/11 03:33:31;;;;;;;1.55;1.45;;;;;;;4.13;84.35;98977.28;5111665;28;20035;-71
2023/01/11 03:36:20;;;;;;;1.70;1.40;;;;;;;4.19;84.17;98989.88;5111732;28;20024;-71
2023/01/11 03:38:57;;;;;;;2.35;1.75;;;;;;;4.13;84.90;98980.84;5113225;28;20027;-71
2023/01/11 03:41:28;;;;;;;4.88;1.88;;;;;;;4.04;84.85;98988.19;5111395;28;20038;-71
2023/01/11 03:43:56;;;;;;;2.40;1.95;;;;;;;4.15;84.59;98983.31;5110275;28;20031;-71
2023/01/11 03:46:51;;;;;;;2.08;1.83;;;;;;;4.12;84.06;98998.59;5111398;28;20477;-72
2023/01/11 03:49:29;;;;;;;2.15;1.40;;;;;;;4.18;84.43;98994.63;5111341;28;20703;-71
2023/01/11 03:51:57;;;;;;;2.47;1.92;;;;;;;4.07;83.93;98995.91;5110398;28;20046;-71
2023/01/11 03:54:25;;;;;;;2.00;1.80;;;;;;;4.10;84.04;99005.53;5113030;28;20398;-71
2023/01/11 03:57:19;;;;;;;3.05;2.13;;;;;;;4.07;83.81;99015.28;5111133;28;20070;-72
2023/01/11 03:59:45;;;;;;;3.45;2.47;;;;;;;4.16;83.71;99024.56;5110330;28;20024;-71
2023/01/11 04:02:26;;;;;;;2.35;1.90;;;;;;;4.17;83.83;99039.19;5127230;27;20035;-71
2023/01/11 04:04:52;;;;;;;3.83;1.80;;;;;;;4.14;82.17;99039.81;5112461;28;20084;-71
2023/01/11 04:07:17;;;;;;;1.92;1.77;;;;;;;4.20;82.24;99046.88;5111405;28;20503;-71
2023/01/11 04:09:43;;;;;;;2.17;1.73;;;;;;;4.20;80.67;99039.41;5111004;28;20027;-71
2023/01/11 04:12:09;;;;;;;3.35;1.55;;;;;;;4.19;81.46;99051.63;5111635;28;20030;-71
2023/01/11 04:14:34;;;;;;;2.00;1.55;;;;;;;4.24;80.52;99045.19;5111085;28;20024;-71
2023/01/11 04:17:00;;;;;;;2.20;2.00;;;;;;;4.24;80.80;99053.50;5111086;28;20108;-71
2023/01/11 04:19:25;;;;;;;2.33;1.95;;;;;;;4.35;81.28;99059.66;5112474;28;20031;-72
2023/01/11 04:21:51;;;;;;;2.60;2.08;;;;;;;4.29;81.00;99045.06;5111293;28;20061;-71
2023/01/11 04:24:17;;;;;;;1.88;1.70;;;;;;;4.35;80.71;99063.25;5112251;28;20410;-71
2023/01/11 04:26:43;;;;;;;2.80;2.13;;;;;;;4.42;80.96;99060.09;5112196;28;20027;-71
2023/01/11 04:29:08;;;;;;;2.50;2.30;;;;;;;4.32;80.46;99055.53;5111032;28;20031;-71
2023/01/11 04:31:34;;;;;;;6.18;3.13;;;;;;;4.39;79.51;99055.16;5111140;28;20023;-72
2023/01/11 04:33:59;;;;;;;3.40;2.22;;;;;;;4.38;80.16;99061.00;5112158;28;20076;-71
2023/01/11 04:36:27;;;;;;;2.38;2.13;;;;;;;4.34;81.01;99069.94;5110799;28;20050;-71
2023/01/11 04:38:53;;;;;;;2.10;1.90;;;;;;;4.35;79.85;99054.97;5110882;28;20040;-71
2023/01/11 04:44:02;;;;;;;1.70;1.60;;;;;;;4.39;79.69;99070.97;5112081;28;20532;-72
2023/01/11 04:46:28;;;;;;;2.72;2.03;;;;;;;4.35;79.53;99067.97;5111415;28;20032;-71
2023/01/11 04:48:55;;;;;;;2.10;1.90;;;;;;;4.39;79.51;99082.03;5109506;28;20452;-71
2023/01/11 04:51:21;;;;;;;1.92;1.73;;;;;;;4.46;79.79;99074.13;5109524;28;20028;-71
2023/01/11 04:53:48;;;;;;;1.90;1.60;;;;;;;4.39;78.50;99085.59;5111634;28;20012;-71
2023/01/11 04:56:14;;;;;;;2.03;1.70;;;;;;;4.45;79.26;99076.09;5110414;28;20134;-71
2023/01/11 04:58:40;;;;;;;3.47;2.75;;;;;;;4.44;78.44;99090.25;5110056;28;20030;-71
2023/01/11 05:01:14;;;;;;;4.18;3.20;;;;;;;4.33;78.60;99079.34;5108439;28;20036;-71
2023/01/11 05:03:40;;;;;;;4.90;3.60;;;;;;;4.38;78.72;99083.16;5111716;28;20028;-71
2023/01/11 05:06:06;;;;;;;5.75;4.22;;;;;;;4.36;79.00;99086.22;5110094;28;20054;-71
2023/01/11 05:08:32;;;;;;;3.10;2.33;;;;;;;4.52;78.21;99085.94;5111825;28;20106;-71
2023/01/11 05:11:06;;;;;;;2.60;2.22;;;;;;;4.49;78.32;99095.72;5111737;28;20035;-71
2023/01/11 05:13:41;;;;;;;3.15;2.58;;;;;;;4.47;79.21;99096.00;5091425;28;20024;-71
2023/01/11 05:16:07;;;;;;;6.75;3.45;;;;;;;4.43;78.46;99108.81;5104155;28;20031;-70
2023/01/11 05:18:33;;;;;;;17.90;8.23;;;;;;;4.38;78.46;99108.09;5111630;28;20031;-71
2023/01/11 05:20:58;;;;;;;19.05;9.75;;;;;;;4.28;78.59;99111.81;5111703;28;20085;-71
2023/01/11 05:23:24;;;;;;;24.35;11.25;;;;;;;4.30;79.97;99115.13;5110812;28;20036;-72
2023/01/11 05:25:49;;;;;;;8.40;5.78;;;;;;;4.21;79.32;99103.91;5111529;28;20024;-70
2023/01/11 05:28:15;;;;;;;7.53;4.32;;;;;;;4.15;79.60;99116.19;5111852;28;20032;-71
2023/01/11 05:30:40;;;;;;;5.25;4.10;;;;;;;4.16;80.69;99109.53;5108929;28;20046;-71
2023/01/11 05:33:05;;;;;;;6.65;4.65;;;;;;;4.09;80.36;99112.69;5108948;28;20031;-70
2023/01/11 05:35:31;;;;;;;7.63;5.60;;;;;;;4.06;80.58;99107.75;5110376;28;20059;-70
2023/01/11 05:37:56;;;;;;;8.82;5.70;;;;;;;4.07;81.81;99118.50;5111582;28;20100;-70
2023/01/11 05:40:22;;;;;;;8.65;5.32;;;;;;;3.99;81.64;99113.66;5105732;28;20109;-70
2023/01/11 05:42:47;;;;;;;21.67;11.45;;;;;;;3.95;82.18;99107.06;5110264;28;20027;-71
2023/01/11 05:45:28;;;;;;;20.88;12.55;;;;;;;3.92;83.26;99115.97;5108760;28;20027;-72
2023/01/11 05:47:53;;;;;;;16.67;10.30;;;;;;;3.87;83.75;99121.59;5111424;28;20095;-71
2023/01/11 05:50:19;;;;;;;26.45;14.43;;;;;;;3.79;82.81;99121.13;5103456;28;20031;-71
2023/01/11 05:52:44;;;;;;;19.13;12.23;;;;;;;3.84;83.28;99133.25;5106691;28;20033;-71
2023/01/11 05:55:10;;;;;;;22.95;12.73;;;;;;;3.75;83.54;99125.63;5110208;28;20405;-70
2023/01/11 05:57:35;;;;;;;34.58;18.13;;;;;;;3.84;83.18;99133.25;5110006;28;20052;-70
2023/01/11 06:00:02;;;;;;;37.08;22.30;;;;;;;3.79;83.67;99136.91;5111422;28;20030;-71
2023/01/11 06:02:28;;;;;;;34.38;21.08;;;;;;;3.79;83.95;99142.44;5107379;28;20031;-71
2023/01/11 06:04:53;;;;;;;22.30;15.75;;;;;;;3.61;84.62;99144.06;5108563;28;20464;-71
2023/01/11 06:07:19;;;;;;;23.58;14.52;;;;;;;3.61;85.92;99147.66;5112438;28;20027;-73
2023/01/11 06:09:44;;;;;;;21.25;15.05;;;;;;;3.50;85.58;99149.75;5108982;28;20080;-72
2023/01/11 06:12:10;;;;;;;34.00;20.85;;;;;;;3.39;86.90;99134.41;5108505;28;20089;-72
2023/01/11 06:14:35;;;;;;;37.83;21.77;;;;;;;3.45;86.76;99138.72;5112825;28;20015;-73
2023/01/11 06:17:01;;;;;;;36.58;19.10;;;;;;;3.41;86.72;99142.38;5099608;28;20073;-75
2023/01/11 06:19:26;;;;;;;19.75;12.02;;;;;;;3.56;86.25;99144.13;5111767;28;20024;-74
2023/01/11 06:21:52;;;;;;;16.92;9.93;;;;;;;3.65;84.91;99156.19;5103648;28;20028;-72
2023/01/11 06:24:17;;;;;;;25.67;13.65;;;;;;;3.83;84.29;99157.34;5113095;28;20028;-71
2023/01/11 06:26:43;;;;;;;29.05;15.35;;;;;;;3.78;83.87;99169.28;5111166;28;20374;-74
2023/01/11 06:29:08;;;;;;;33.65;18.63;;;;;;;3.70;84.49;99169.94;5112716;28;20027;-70
2023/01/11 06:31:34;;;;;;;39.08;20.77;;;;;;;3.89;84.35;99174.69;5107069;28;20020;-70
2023/01/11 06:33:59;;;;;;;36.65;21.27;;;;;;;4.07;83.33;99171.09;5104844;28;20024;-70
2023/01/11 06:36:25;;;;;;;42.53;21.73;;;;;;;4.29;82.23;99172.44;5095229;28;20036;-71
2023/01/11 06:38:51;;;;;;;39.50;21.33;;;;;;;4.52;82.36;99178.19;5105148;28;20035;-70
2023/01/11 06:41:16;;;;;;;42.05;20.67;;;;;;;4.56;81.70;99173.69;5112534;28;20463;-68
2023/01/11 06:43:42;;;;;;;38.92;19.58;;;;;;;4.66;81.53;99183.78;5106670;28;20059;-71
2023/01/11 06:46:12;;;;;;;37.25;22.08;;;;;;;4.76;81.19;99185.56;5109162;28;20039;-70
2023/01/11 06:48:38;;;;;;;54.92;32.15;;;;;;;4.77;80.30;99201.06;5108478;28;20027;-69
2023/01/11 06:51:04;;;;;;;78.80;46.13;;;;;;;4.06;83.64;99190.78;5112294;28;20505;-70
2023/01/11 06:53:29;;;;;;;59.42;36.58;;;;;;;3.96;84.43;99191.75;5112304;28;20036;-69
2023/01/11 06:55:56;;;;;;;65.68;39.60;;;;;;;3.98;85.13;99188.69;5111895;28;20437;-73
2023/01/11 06:58:23;;;;;;;61.00;37.58;;;;;;;4.45;84.46;99197.97;5110435;28;20514;-70
2023/01/11 07:00:50;;;;;;;79.20;40.83;;;;;;;4.49;83.88;99209.28;5092407;28;20035;-73
2023/01/11 07:03:16;;;;;;;43.80;24.85;;;;;;;4.68;83.92;99205.63;5109990;28;20037;-73
2023/01/11 07:05:42;;;;;;;50.53;26.67;;;;;;;4.38;85.16;99216.09;5112733;28;20027;-68
2023/01/11 07:08:08;;;;;;;50.28;25.80;;;;;;;4.38;86.66;99216.91;5111442;28;20063;-68
2023/01/11 07:10:34;;;;;;;39.47;20.35;;;;;;;4.50;85.07;99211.72;5112159;28;20082;-69
2023/01/11 07:13:00;;;;;;;38.63;21.15;;;;;;;4.43;85.23;99205.75;5112982;28;20050;-69
2023/01/11 07:15:25;;;;;;;23.23;14.60;;;;;;;4.35;85.91;99215.56;5106823;28;20034;-70
2023/01/11 07:17:55;;;;;;;19.85;12.50;;;;;;;4.28;86.71;99220.66;5092679;28;20056;-70
2023/01/11 07:20:22;;;;;;;28.02;15.48;;;;;;;4.19;88.41;99217.72;5111893;28;20097;-69
2023/01/11 07:22:47;;;;;;;23.02;12.63;;;;;;;4.25;89.10;99231.50;5110887;28;20115;-69
2023/01/11 07:25:13;;;;;;;26.63;13.93;;;;;;;4.45;89.38;99233.13;5112493;28;20040;-70
2023/01/11 07:27:38;;;;;;;27.27;16.77;;;;;;;4.78;88.02;99236.78;5112536;28;20027;-69
2023/01/11 07:30:04;;;;;;;23.83;15.30;;;;;;;4.87;87.12;99245.25;5106415;28;20035;-70
2023/01/11 07:32:29;;;;;;;21.15;14.80;;;;;;;5.01;86.36;99247.22;5111701;28;20031;-70
2023/01/11 07:34:55;;;;;;;25.40;11.05;;;;;;;5.17;85.57;99251.38;5110421;28;20027;-70
2023/01/11 07:37:21;;;;;;;13.23;9.00;;;;;;;5.47;83.67;99257.50;5112482;28;20072;-70
2023/01/11 07:39:47;;;;;;;11.52;7.95;;;;;;;5.41;82.01;99244.03;5110407;28;20304;-69
2023/01/11 07:44:56;;;;;;;16.23;8.32;;;;;;;5.53;79.58;99255.47;5108876;28;20165;-69
2023/01/11 07:47:22;;;;;;;16.45;8.43;;;;;;;5.51;79.86;99254.13;5120794;27;20118;-69
2023/01/11 07:49:47;;;;;;;12.60;6.80;;;;;;;5.62;78.27;99250.00;5104838;28;20483;-69
2023/01/11 07:52:13;;;;;;;11.20;6.25;;;;;;;5.62;77.81;99255.56;5104012;28;24048;-69
2023/01/11 07:54:38;;;;;;;12.40;7.45;;;;;;;5.82;77.05;99267.41;5112888;27;20031;-69
2023/01/11 07:57:04;;;;;;;9.25;5.70;;;;;;;5.86;75.54;99273.97;5111197;28;20104;-69
2023/01/11 07:59:29;;;;;;;11.23;6.47;;;;;;;5.85;75.67;99275.09;5117414;27;20073;-69
2023/01/11 08:01:55;;;;;;;11.10;6.97;;;;;;;5.99;75.09;99278.69;5107173;28;20028;-69
2023/01/11 08:04:20;;;;;;;13.90;7.63;;;;;;;5.90;76.02;99286.09;5110932;28;20027;-70
2023/01/11 08:06:46;;;;;;;13.07;6.90;;;;;;;6.04;74.48;99277.81;5112322;28;20110;-69
2023/01/11 08:09:12;;;;;;;15.07;7.20;;;;;;;6.02;74.97;99286.44;5111316;28;20042;-69
2023/01/11 08:14:39;;;;;;;26.80;10.77;;;;;;;5.68;75.96;99295.97;5111738;28;20038;-70
2023/01/11 08:17:12;;;;;;;12.77;6.82;;;;;;;5.59;76.40;99301.38;5110986;28;20031;-69
2023/01/11 08:19:38;;;;;;;13.25;6.57;;;;;;;5.60;77.50;99313.31;5111748;28;20036;-69
2023/01/11 08:22:04;;;;;;;23.77;10.38;;;;;;;5.56;76.78;99320.63;5109579;27;20030;-69
2023/01/11 08:24:30;;;;;;;13.90;5.45;;;;;;;5.73;75.19;99314.47;5110626;28;20063;-69
2023/01/11 08:26:55;;;;;;;8.23;5.40;;;;;;;5.98;75.76;99315.13;5110877;28;20478;-69
2023/01/11 08:29:21;;;;;;;12.65;6.70;;;;;;;6.08;74.79;99312.16;5110257;28;20035;-69
2023/01/11 08:31:48;;;;;;;25.15;11.25;;;;;;;6.12;75.05;99317.91;5110428;28;20023;-69
2023/01/11 08:34:14;;;;;;;20.90;8.98;;;;;;;6.08;75.17;99316.91;5110155;28;20023;-70
2023/01/11 08:36:39;;;;;;;7.53;4.38;;;;;;;6.29;74.00;99328.41;5111496;28;20039;-69
2023/01/11 08:39:05;;;;;;;6.85;4.68;;;;;;;6.54;73.31;99324.25;5111258;28;20019;-69
2023/01/11 08:41:31;;;;;;;11.45;6.40;;;;;;;6.69;72.16;99327.81;5109047;27;20110;-70
2023/01/11 08:43:57;;;;;;;16.85;6.63;;;;;;;6.60;73.62;99322.19;5100009;28;20065;-75
2023/01/11 08:46:24;;;;;;;6.13;4.47;;;;;;;6.65;72.19;99330.41;5100938;28;20028;-74
2023/01/11 08:48:52;;;;;;;10.25;6.47;;;;;;;6.47;73.88;99323.84;5109771;28;20028;-70
2023/01/11 08:51:17;;;;;;;7.63;4.50;;;;;;;6.49;72.21;99318.78;5110795;28;20495;-75
2023/01/11 08:53:43;;;;;;;19.35;8.07;;;;;;;6.45;72.30;99320.56;5109166;28;20027;-70
2023/01/11 08:56:08;;;;;;;19.17;12.45;;;;;;;6.41;73.65;99327.88;5109750;28;20035;-69
2023/01/11 08:58:34;;;;;;;13.77;9.38;;;;;;;6.34;72.90;99330.25;5109851;28;20027;-69
2023/01/11 09:01:01;;;;;;;9.40;6.20;;;;;;;6.29;73.02;99323.69;5111066;28;20204;-69
2023/01/11 09:03:28;;;;;;;6.78;5.05;;;;;;;6.19;73.28;99329.44;5111357;28;20030;-70
2023/01/11 09:05:55;;;;;;;6.85;5.03;;;;;;;6.20;74.08;99333.03;5105957;28;20490;-70
2023/01/11 09:08:21;;;;;;;7.93;6.13;;;;;;;6.10;75.58;99328.50;5107330;28;20104;-69
2023/01/11 09:10:47;;;;;;;8.95;6.10;;;;;;;6.25;76.54;99328.19;5110146;28;20023;-69
2023/01/11 09:13:12;;;;;;;8.25;5.28;;;;;;;6.39;75.36;99327.34;5111397;28;20421;-69
2023/01/11 09:15:38;;;;;;;9.75;6.20;;;;;;;6.48;75.24;99331.06;5109015;28;20096;-69
2023/01/11 09:18:04;;;;;;;10.98;7.30;;;;;;;6.48;75.99;99321.91;5110116;28;20067;-69
2023/01/11 09:20:29;;;;;;;9.30;6.13;;;;;;;6.39;74.97;99327.34;5111373;28;20028;-69
2023/01/11 09:22:55;;;;;;;8.10;6.38;;;;;;;6.41;74.33;99336.22;5110127;28;20421;-69
2023/01/11 09:25:21;;;;;;;6.45;4.97;;;;;;;6.38;74.66;99334.03;5109594;28;20031;-70
2023/01/11 09:27:48;;;;;;;19.40;12.07;;;;;;;6.38;74.63;99328.47;5111197;28;20032;-69
2023/01/11 09:30:19;;;;;;;16.05;9.32;;;;;;;6.52;74.67;99336.81;5109300;28;20027;-69
2023/01/11 09:32:45;;;;;;;13.07;8.85;;;;;;;6.47;74.84;99332.19;5110625;28;20561;-69
2023/01/11 09:35:13;;;;;;;14.52;7.15;;;;;;;6.58;75.65;99339.16;5114851;28;20028;-69
2023/01/11 09:37:40;;;;;;;16.20;9.95;;;;;;;6.73;75.88;99337.19;5101171;28;20044;-69
2023/01/11 09:40:20;;;;;;;15.70;10.15;;;;;;;6.79;75.44;99333.16;5112480;28;20459;-69
2023/01/11 09:42:50;;;;;;;32.80;16.33;;;;;;;6.82;75.91;99320.59;5101587;28;20038;-69
2023/01/11 09:45:22;;;;;;;10.38;6.93;;;;;;;6.67;74.39;99322.56;5114395;28;20084;-69
2023/01/11 09:47:59;;;;;;;14.77;8.88;;;;;;;6.56;74.99;99310.03;5109270;28;20038;-69
2023/01/11 09:50:40;;;;;;;19.30;9.73;;;;;;;6.67;74.59;99319.78;5130460;27;20031;-69
2023/01/11 09:53:30;;;;;;;19.25;9.82;;;;;;;6.75;74.21;99315.44;5107126;28;20394;-69
2023/01/11 09:56:00;;;;;;;9.90;6.38;;;;;;;6.76;74.29;99322.69;5105055;28;20110;-69
2023/01/11 09:58:29;;;;;;;13.43;6.90;;;;;;;6.79;74.16;99327.59;5114660;28;20102;-69
2023/01/11 10:01:09;;;;;;;19.37;10.73;;;;;;;6.82;74.86;99332.53;5114109;27;20094;-74
2023/01/11 10:03:48;;;;;;;18.15;9.75;;;;;;;6.86;75.54;99322.41;5112545;28;20057;-69
2023/01/11 10:06:44;;;;;;;11.18;7.13;;;;;;;6.86;73.80;99324.38;5099788;28;20027;-69
2023/01/11 10:09:40;;;;;;;14.05;8.85;;;;;;;6.84;75.04;99316.34;5114630;28;20478;-69
2023/01/11 10:12:24;;;;;;;12.30;7.95;;;;;;;6.94;73.45;99322.81;5112851;28;20031;-69
2023/01/11 10:15:11;;;;;;;19.25;9.88;;;;;;;6.97;73.96;99330.53;5114300;28;20023;-69
2023/01/11 10:17:45;;;;;;;20.60;10.18;;;;;;;6.91;72.65;99326.22;5110794;28;20410;-69
2023/01/11 10:20:19;;;;;;;12.68;7.82;;;;;;;6.92;72.21;99331.47;5110716;28;20055;-69
2023/01/11 10:22:47;;;;;;;10.48;5.95;;;;;;;6.97;72.47;99330.53;5111721;28;20027;-70
2023/01/11 10:25:17;;;;;;;8.63;5.55;;;;;;;6.91;73.07;99332.59;5113009;27;20027;-69
2023/01/11 10:27:57;;;;;;;;;;;;;;;6.98;72.08;99332.16;5113869;28;20072;-70
2023/01/11 10:42:21;;;;;;;9.00;5.18;;;;;;;7.34;69.37;99317.38;5085612;28;20136;-68
2023/01/11 10:44:59;;;;;;;14.70;6.63;;;;;;;7.44;67.52;99322.69;5093084;28;20107;-69
2023/01/11 10:47:40;;;;;;;25.60;13.30;;;;;;;7.38;67.86;99321.19;5101264;28;20074;-69
2023/01/11 10:50:20;;;;;;;13.05;8.27;;;;;;;7.60;70.49;99325.06;5097455;28;20157;-69
2023/01/11 10:52:54;;;;;;;;;;;;;;;7.75;69.10;99320.25;5112036;28;20406;-69
2023/01/11 10:55:47;;;;;;;9.18;5.28;;;;;;;7.82;68.39;99320.59;5111102;28;19914;-69
2023/01/11 10:58:45;;;;;;;15.82;6.43;;;;;;;7.85;68.70;99314.41;5123322;27;20055;-69
2023/01/11 11:01:33;;;;;;;8.18;4.90;;;;;;;7.71;66.76;99308.94;5075336;28;20505;-69
2023/01/11 11:04:27;;;;;;;7.93;5.13;;;;;;;7.79;67.55;99313.72;5102447;28;20399;-69
2023/01/11 11:07:15;;;;;;;11.65;5.30;;;;;;;7.78;67.13;99316.81;5093227;28;20391;-69
2023/01/11 11:10:05;;;;;;;14.70;7.35;;;;;;;7.84;66.94;99318.31;5111228;28;20510;-69
2023/01/11 11:12:47;;;;;;;6.53;4.68;;;;;;;7.86;67.44;99305.72;5111480;28;20543;-69
2023/01/11 11:15:15;;;;;;;7.38;5.13;;;;;;;7.80;66.03;99317.31;5095006;28;20473;-69
2023/01/11 11:17:48;;;;;;;10.57;6.22;;;;;;;7.73;66.16;99301.91;5108157;28;20023;-69
2023/01/11 11:20:19;;;;;;;5.80;4.68;;;;;;;7.75;66.69;99309.13;5100833;28;20023;-69
2023/01/11 11:22:49;;;;;;;9.25;5.75;;;;;;;7.67;66.56;99307.94;5102956;28;20027;-69
2023/01/11 11:25:16;;;;;;;5.18;4.30;;;;;;;7.77;67.08;99313.19;5112158;28;20027;-69
2023/01/11 11:27:57;;;;;;;7.93;4.88;;;;;;;7.84;67.13;99302.44;5111357;28;20032;-70
2023/01/11 11:30:37;;;;;;;;;;;;;;;7.87;67.15;99312.13;5101230;28;20077;-69
2023/01/11 11:33:22;;;;;;;9.95;5.40;;;;;;;7.81;66.23;99307.81;5108433;28;19955;-69
2023/01/11 11:36:17;;;;;;;10.20;3.72;;;;;;;7.80;65.70;99311.75;5106324;28;20031;-69
2023/01/11 11:39:24;;;;;;;5.55;3.30;;;;;;;7.80;66.09;99308.97;5094209;27;20494;-69
2023/01/11 11:41:52;;;;;;;8.18;4.85;;;;;;;7.84;65.15;99302.44;5028430;28;20079;-69
2023/01/11 11:44:21;;;;;;;10.85;6.53;;;;;;;7.99;66.34;99305.94;5099393;28;20495;-69
2023/01/11 11:47:01;;;;;;;6.97;4.53;;;;;;;7.94;64.62;99304.09;5110927;28;20023;-69
2023/01/11 11:49:31;;;;;;;6.25;4.65;;;;;;;7.95;66.30;99305.75;5112625;28;20448;-69
2023/01/11 11:51:58;;;;;;;9.27;5.88;;;;;;;8.06;66.79;99302.69;5113361;28;20371;-69
2023/01/11 11:54:39;;;;;;;7.07;5.35;;;;;;;8.21;66.30;99301.41;5110125;28;20104;-69
2023/01/11 11:57:21;;;;;;;10.48;6.55;;;;;;;8.31;65.93;99308.66;5106340;28;20047;-69
2023/01/11 11:59:49;;;;;;;10.63;4.93;;;;;;;8.36;66.83;99316.88;5105578;28;20513;-69
2023/01/11 12:02:29;;;;;;;7.82;4.10;;;;;;;8.40;64.99;99304.75;5110646;28;20081;-69
2023/01/11 12:04:58;;;;;;;11.25;4.47;;;;;;;8.34;63.83;99308.03;5107417;28;20032;-69
2023/01/11 12:07:28;;;;;;;5.57;4.28;;;;;;;8.31;62.49;99306.69;5101216;28;20168;-69
2023/01/11 12:09:58;;;;;;;5.70;3.80;;;;;;;8.18;62.24;99305.66;5111980;28;20106;-69
2023/01/11 12:12:24;;;;;;;7.95;4.30;;;;;;;8.38;64.42;99307.03;5110707;28;20039;-69
2023/01/11 12:15:14;;;;;;;11.23;5.22;;;;;;;8.52;64.54;99301.34;5111545;28;20517;-69
2023/01/11 12:17:40;;;;;;;11.90;7.63;;;;;;;8.62;63.43;99303.00;5104922;28;20406;-69
2023/01/11 12:20:30;;;;;;;6.68;4.50;;;;;;;8.57;64.02;99297.59;5110908;28;20035;-70
2023/01/11 12:23:20;;;;;;;5.97;4.60;;;;;;;8.45;64.29;99306.59;5089049;28;20081;-69
2023/01/11 12:26:11;;;;;;;6.05;3.50;;;;;;;8.34;63.31;99297.69;5098168;28;20032;-70
2023/01/11 12:28:57;;;;;;;7.30;5.10;;;;;;;8.48;63.74;99288.38;5109925;28;20031;-73
2023/01/11 12:31:32;;;;;;;18.52;8.90;;;;;;;8.60;64.49;99287.78;5100378;28;20110;-73